sensor_id;sensor_type;location;lat;lon;timestamp;pressure;altitude;pressure_sealevel;temperature;humidity
65384;BME280;51986;52.788;41.368;2022-07-23T00:01:04;98792.53;;;15.31;76.05
65384;BME280;51986;52.788;41.368;2022-07-23T00:03:31;98794.50;;;15.39;75.95
65384;BME280;51986;52.788;41.368;2022-07-23T00:05:58;98794.78;;;15.32;76.06
65384;BME280;51986;52.788;41.368;2022-07-23T00:08:28;98800.09;;;15.32;75.88
65384;BME280;51986;52.788;41.368;2022-07-23T00:10:55;98797.22;;;15.27;75.90
65384;BME280;51986;52.788;41.368;2022-07-23T00:13:21;98797.31;;;15.14;76.27
65384;BME280;51986;52.788;41.368;2022-07-23T00:15:48;98795.50;;;15.33;75.50
65384;BME280;51986;52.788;41.368;2022-07-23T00:18:15;98790.16;;;15.24;75.25
65384;BME280;51986;52.788;41.368;2022-07-23T00:20:42;98804.09;;;15.37;75.28
65384;BME280;51986;52.788;41.368;2022-07-23T00:23:09;98797.56;;;15.29;75.43
65384;BME280;51986;52.788;41.368;2022-07-23T00:25:37;98797.84;;;15.31;75.60
65384;BME280;51986;52.788;41.368;2022-07-23T00:28:04;98785.50;;;15.37;75.26
65384;BME280;51986;52.788;41.368;2022-07-23T00:30:32;98800.81;;;15.33;75.25
65384;BME280;51986;52.788;41.368;2022-07-23T00:33:02;98770.00;;;15.13;75.21
65384;BME280;51986;52.788;41.368;2022-07-23T00:35:31;98787.72;;;15.38;74.68
65384;BME280;51986;52.788;41.368;2022-07-23T00:37:59;98790.09;;;15.46;74.46
65384;BME280;51986;52.788;41.368;2022-07-23T00:40:29;98799.25;;;15.45;74.16
65384;BME280;51986;52.788;41.368;2022-07-23T00:42:56;98774.59;;;15.44;74.45
65384;BME280;51986;52.788;41.368;2022-07-23T00:45:23;98800.56;;;15.40;74.35
65384;BME280;51986;52.788;41.368;2022-07-23T00:47:50;98800.31;;;15.47;74.11
65384;BME280;51986;52.788;41.368;2022-07-23T00:50:17;98787.16;;;15.43;74.02
65384;BME280;51986;52.788;41.368;2022-07-23T00:52:45;98798.09;;;15.55;73.82
65384;BME280;51986;52.788;41.368;2022-07-23T00:55:13;98813.94;;;15.58;73.71
65384;BME280;51986;52.788;41.368;2022-07-23T00:57:40;98826.38;;;15.61;73.69
65384;BME280;51986;52.788;41.368;2022-07-23T01:00:12;98811.59;;;15.60;73.69
65384;BME280;51986;52.788;41.368;2022-07-23T01:02:40;98825.38;;;15.77;73.05
65384;BME280;51986;52.788;41.368;2022-07-23T01:05:10;98833.81;;;15.76;73.29
65384;BME280;51986;52.788;41.368;2022-07-23T01:07:38;98838.81;;;15.74;73.16
65384;BME280;51986;52.788;41.368;2022-07-23T01:10:06;98821.66;;;15.65;72.82
65384;BME280;51986;52.788;41.368;2022-07-23T01:12:33;98852.81;;;15.65;73.05
65384;BME280;51986;52.788;41.368;2022-07-23T01:15:00;98835.69;;;15.66;73.00
65384;BME280;51986;52.788;41.368;2022-07-23T01:17:29;98832.53;;;15.58;72.87
65384;BME280;51986;52.788;41.368;2022-07-23T01:19:56;98837.00;;;15.61;72.86
65384;BME280;51986;52.788;41.368;2022-07-23T01:24:51;98821.91;;;15.58;72.26
65384;BME280;51986;52.788;41.368;2022-07-23T01:27:22;98837.81;;;15.49;72.82
65384;BME280;51986;52.788;41.368;2022-07-23T01:29:55;98817.59;;;15.52;72.63
65384;BME280;51986;52.788;41.368;2022-07-23T01:32:42;98807.38;;;15.50;72.53
65384;BME280;51986;52.788;41.368;2022-07-23T01:35:09;98818.97;;;15.56;72.42
65384;BME280;51986;52.788;41.368;2022-07-23T01:37:37;98824.88;;;15.60;72.43
65384;BME280;51986;52.788;41.368;2022-07-23T01:40:06;98805.66;;;15.56;72.45
65384;BME280;51986;52.788;41.368;2022-07-23T01:42:33;98809.53;;;15.64;72.15
65384;BME280;51986;52.788;41.368;2022-07-23T01:45:04;98825.47;;;15.64;72.07
65384;BME280;51986;52.788;41.368;2022-07-23T01:47:33;98823.38;;;15.59;72.45
65384;BME280;51986;52.788;41.368;2022-07-23T01:50:00;98833.72;;;15.57;72.58
65384;BME280;51986;52.788;41.368;2022-07-23T01:52:50;98836.38;;;15.57;72.63
65384;BME280;51986;52.788;41.368;2022-07-23T01:55:17;98841.94;;;15.50;73.16
65384;BME280;51986;52.788;41.368;2022-07-23T01:57:48;98807.22;;;15.45;73.22
65384;BME280;51986;52.788;41.368;2022-07-23T02:00:18;98835.53;;;15.60;73.18
65384;BME280;51986;52.788;41.368;2022-07-23T02:02:51;98820.31;;;15.61;73.03
65384;BME280;51986;52.788;41.368;2022-07-23T02:05:19;98833.59;;;15.61;73.13
65384;BME280;51986;52.788;41.368;2022-07-23T02:07:45;98847.06;;;15.66;73.09
65384;BME280;51986;52.788;41.368;2022-07-23T02:10:12;98854.81;;;15.83;72.80
65384;BME280;51986;52.788;41.368;2022-07-23T02:12:39;98859.84;;;15.81;72.49
65384;BME280;51986;52.788;41.368;2022-07-23T02:15:09;98804.72;;;15.50;72.96
65384;BME280;51986;52.788;41.368;2022-07-23T02:17:36;98812.78;;;15.68;72.47
65384;BME280;51986;52.788;41.368;2022-07-23T02:20:04;98838.53;;;15.72;73.03
65384;BME280;51986;52.788;41.368;2022-07-23T02:22:31;98830.13;;;15.82;72.68
65384;BME280;51986;52.788;41.368;2022-07-23T02:24:58;98832.34;;;15.84;72.61
65384;BME280;51986;52.788;41.368;2022-07-23T02:27:25;98833.78;;;15.66;72.77
65384;BME280;51986;52.788;41.368;2022-07-23T02:29:52;98841.66;;;15.88;72.33
65384;BME280;51986;52.788;41.368;2022-07-23T02:32:19;98825.97;;;15.72;72.63
65384;BME280;51986;52.788;41.368;2022-07-23T02:34:49;98856.69;;;15.73;72.77
65384;BME280;51986;52.788;41.368;2022-07-23T02:37:17;98859.28;;;15.64;73.00
65384;BME280;51986;52.788;41.368;2022-07-23T02:39:45;98836.63;;;15.50;73.04
65384;BME280;51986;52.788;41.368;2022-07-23T02:42:12;98854.72;;;15.64;73.91
65384;BME280;51986;52.788;41.368;2022-07-23T02:44:40;98870.66;;;15.64;72.89
65384;BME280;51986;52.788;41.368;2022-07-23T02:47:07;98854.75;;;15.74;73.02
65384;BME280;51986;52.788;41.368;2022-07-23T02:49:34;98895.03;;;15.63;72.96
65384;BME280;51986;52.788;41.368;2022-07-23T02:52:04;98865.97;;;15.37;73.95
65384;BME280;51986;52.788;41.368;2022-07-23T02:54:31;98860.66;;;15.37;73.65
65384;BME280;51986;52.788;41.368;2022-07-23T02:56:58;98883.97;;;15.21;74.03
65384;BME280;51986;52.788;41.368;2022-07-23T02:59:25;98884.13;;;15.39;74.02
65384;BME280;51986;52.788;41.368;2022-07-23T03:01:52;98871.78;;;15.23;74.48
65384;BME280;51986;52.788;41.368;2022-07-23T03:04:19;98869.59;;;15.31;74.01
65384;BME280;51986;52.788;41.368;2022-07-23T03:06:47;98888.75;;;15.48;73.31
65384;BME280;51986;52.788;41.368;2022-07-23T03:09:14;98880.22;;;15.53;73.82
65384;BME280;51986;52.788;41.368;2022-07-23T03:11:41;98879.38;;;15.56;73.24
65384;BME280;51986;52.788;41.368;2022-07-23T03:14:08;98862.34;;;15.53;73.34
65384;BME280;51986;52.788;41.368;2022-07-23T03:16:36;98877.16;;;15.63;73.19
65384;BME280;51986;52.788;41.368;2022-07-23T03:19:03;98868.41;;;15.85;72.35
65384;BME280;51986;52.788;41.368;2022-07-23T03:21:32;98865.47;;;15.92;72.29
65384;BME280;51986;52.788;41.368;2022-07-23T03:23:58;98895.84;;;16.04;71.78
65384;BME280;51986;52.788;41.368;2022-07-23T03:26:25;98870.72;;;16.05;71.59
65384;BME280;51986;52.788;41.368;2022-07-23T03:28:52;98888.44;;;16.08;72.29
65384;BME280;51986;52.788;41.368;2022-07-23T03:31:19;98871.69;;;16.29;70.63
65384;BME280;51986;52.788;41.368;2022-07-23T03:33:47;98868.19;;;16.78;69.24
65384;BME280;51986;52.788;41.368;2022-07-23T03:36:14;98866.56;;;17.36;67.56
65384;BME280;51986;52.788;41.368;2022-07-23T03:38:44;98849.97;;;18.64;63.32
65384;BME280;51986;52.788;41.368;2022-07-23T03:41:11;98870.66;;;20.93;56.86
65384;BME280;51986;52.788;41.368;2022-07-23T03:43:38;98881.44;;;20.58;57.27
65384;BME280;51986;52.788;41.368;2022-07-23T03:46:07;98853.84;;;21.82;53.40
65384;BME280;51986;52.788;41.368;2022-07-23T03:48:34;98875.44;;;22.42;51.41
65384;BME280;51986;52.788;41.368;2022-07-23T03:51:01;98871.56;;;22.54;50.64
65384;BME280;51986;52.788;41.368;2022-07-23T03:53:29;98896.19;;;22.41;51.66
65384;BME280;51986;52.788;41.368;2022-07-23T03:55:56;98888.47;;;22.66;50.12
65384;BME280;51986;52.788;41.368;2022-07-23T03:58:24;98893.66;;;21.84;51.69
65384;BME280;51986;52.788;41.368;2022-07-23T04:00:51;98857.56;;;21.53;52.07
65384;BME280;51986;52.788;41.368;2022-07-23T04:03:18;98875.00;;;22.12;51.60
65384;BME280;51986;52.788;41.368;2022-07-23T04:05:45;98880.47;;;21.86;52.25
65384;BME280;51986;52.788;41.368;2022-07-23T04:08:13;98889.53;;;20.78;54.08
65384;BME280;51986;52.788;41.368;2022-07-23T04:10:44;98881.03;;;20.24;55.71
65384;BME280;51986;52.788;41.368;2022-07-23T04:13:11;98906.34;;;19.44;58.57
65384;BME280;51986;52.788;41.368;2022-07-23T04:15:38;98889.09;;;19.45;58.35
65384;BME280;51986;52.788;41.368;2022-07-23T04:18:07;98886.22;;;20.89;54.91
65384;BME280;51986;52.788;41.368;2022-07-23T04:20:45;98896.69;;;20.67;54.98
65384;BME280;51986;52.788;41.368;2022-07-23T04:23:14;98884.97;;;21.37;53.49
65384;BME280;51986;52.788;41.368;2022-07-23T04:25:42;98891.25;;;22.28;52.01
65384;BME280;51986;52.788;41.368;2022-07-23T04:28:09;98888.03;;;22.84;49.80
65384;BME280;51986;52.788;41.368;2022-07-23T04:30:38;98890.22;;;22.74;49.81
65384;BME280;51986;52.788;41.368;2022-07-23T04:33:07;98889.38;;;23.56;47.84
65384;BME280;51986;52.788;41.368;2022-07-23T04:35:41;98878.00;;;24.25;46.63
65384;BME280;51986;52.788;41.368;2022-07-23T04:38:13;98881.56;;;24.61;44.88
65384;BME280;51986;52.788;41.368;2022-07-23T04:40:40;98875.03;;;24.92;44.41
65384;BME280;51986;52.788;41.368;2022-07-23T04:43:07;98849.66;;;25.12;43.41
65384;BME280;51986;52.788;41.368;2022-07-23T04:45:40;98877.00;;;25.27;43.53
65384;BME280;51986;52.788;41.368;2022-07-23T04:48:10;98874.00;;;25.36;42.50
65384;BME280;51986;52.788;41.368;2022-07-23T04:50:37;98855.34;;;25.03;43.88
65384;BME280;51986;52.788;41.368;2022-07-23T04:53:05;98828.00;;;25.48;42.12
65384;BME280;51986;52.788;41.368;2022-07-23T04:55:32;98856.19;;;25.52;42.14
65384;BME280;51986;52.788;41.368;2022-07-23T04:57:59;98852.59;;;25.44;42.88
65384;BME280;51986;52.788;41.368;2022-07-23T05:00:26;98863.13;;;25.48;42.72
65384;BME280;51986;52.788;41.368;2022-07-23T05:02:53;98872.75;;;25.38;42.97
65384;BME280;51986;52.788;41.368;2022-07-23T05:05:20;98847.41;;;25.46;42.80
65384;BME280;51986;52.788;41.368;2022-07-23T05:07:49;98860.81;;;25.27;42.61
65384;BME280;51986;52.788;41.368;2022-07-23T05:10:16;98841.25;;;24.80;43.50
65384;BME280;51986;52.788;41.368;2022-07-23T05:12:43;98853.59;;;25.11;42.88
65384;BME280;51986;52.788;41.368;2022-07-23T05:15:10;98852.06;;;24.16;44.80
65384;BME280;51986;52.788;41.368;2022-07-23T05:17:40;98850.78;;;24.40;44.18
65384;BME280;51986;52.788;41.368;2022-07-23T05:20:12;98847.03;;;23.51;45.77
65384;BME280;51986;52.788;41.368;2022-07-23T05:22:40;98853.88;;;23.52;46.24
65384;BME280;51986;52.788;41.368;2022-07-23T05:25:07;98842.81;;;23.89;46.23
65384;BME280;51986;52.788;41.368;2022-07-23T05:27:34;98862.22;;;23.76;46.85
65384;BME280;51986;52.788;41.368;2022-07-23T05:30:02;98833.31;;;23.54;46.94
65384;BME280;51986;52.788;41.368;2022-07-23T05:32:32;98861.47;;;23.65;47.07
65384;BME280;51986;52.788;41.368;2022-07-23T05:35:09;98839.22;;;23.64;46.73
65384;BME280;51986;52.788;41.368;2022-07-23T05:37:40;98852.91;;;23.32;47.48
65384;BME280;51986;52.788;41.368;2022-07-23T05:40:09;98842.38;;;23.74;47.15
65384;BME280;51986;52.788;41.368;2022-07-23T05:42:54;98822.31;;;23.64;46.81
65384;BME280;51986;52.788;41.368;2022-07-23T05:45:21;98869.19;;;22.73;47.94
65384;BME280;51986;52.788;41.368;2022-07-23T05:47:49;98851.81;;;22.63;49.09
65384;BME280;51986;52.788;41.368;2022-07-23T05:50:37;98864.53;;;22.73;49.93
65384;BME280;51986;52.788;41.368;2022-07-23T05:56:16;98864.19;;;22.43;49.44
65384;BME280;51986;52.788;41.368;2022-07-23T05:58:43;98856.44;;;22.62;49.52
65384;BME280;51986;52.788;41.368;2022-07-23T06:01:13;98878.13;;;22.47;49.91
65384;BME280;51986;52.788;41.368;2022-07-23T06:03:48;98876.31;;;22.22;51.31
65384;BME280;51986;52.788;41.368;2022-07-23T06:06:15;98865.34;;;22.31;51.29
65384;BME280;51986;52.788;41.368;2022-07-23T06:08:42;98864.25;;;22.12;51.73
65384;BME280;51986;52.788;41.368;2022-07-23T06:11:10;98868.22;;;22.81;50.62
65384;BME280;51986;52.788;41.368;2022-07-23T06:13:38;98861.06;;;22.50;51.16
65384;BME280;51986;52.788;41.368;2022-07-23T06:16:06;98846.94;;;22.72;50.09
65384;BME280;51986;52.788;41.368;2022-07-23T06:18:33;98864.84;;;22.98;50.83
65384;BME280;51986;52.788;41.368;2022-07-23T06:21:03;98854.59;;;22.91;50.37
65384;BME280;51986;52.788;41.368;2022-07-23T06:23:50;98858.25;;;22.93;50.08
65384;BME280;51986;52.788;41.368;2022-07-23T06:26:17;98845.28;;;22.92;50.21
65384;BME280;51986;52.788;41.368;2022-07-23T06:29:05;98863.56;;;22.65;50.79
65384;BME280;51986;52.788;41.368;2022-07-23T06:31:35;98851.28;;;22.59;50.76
65384;BME280;51986;52.788;41.368;2022-07-23T06:34:03;98853.88;;;23.52;48.91
65384;BME280;51986;52.788;41.368;2022-07-23T06:36:31;98884.38;;;22.81;49.96
65384;BME280;51986;52.788;41.368;2022-07-23T06:39:02;98854.44;;;22.46;50.24
65384;BME280;51986;52.788;41.368;2022-07-23T06:41:31;98839.34;;;22.65;49.97
65384;BME280;51986;52.788;41.368;2022-07-23T06:43:58;98859.16;;;22.68;51.11
65384;BME280;51986;52.788;41.368;2022-07-23T06:50:04;98854.63;;;23.30;49.71
65384;BME280;51986;52.788;41.368;2022-07-23T06:52:32;98833.56;;;23.17;49.29
65384;BME280;51986;52.788;41.368;2022-07-23T06:55:05;98838.97;;;23.06;49.38
65384;BME280;51986;52.788;41.368;2022-07-23T06:57:32;98848.19;;;22.82;49.48
65384;BME280;51986;52.788;41.368;2022-07-23T07:00:01;98845.06;;;22.95;49.64
65384;BME280;51986;52.788;41.368;2022-07-23T07:02:27;98857.06;;;23.39;48.84
65384;BME280;51986;52.788;41.368;2022-07-23T07:04:57;98828.66;;;23.55;47.84
65384;BME280;51986;52.788;41.368;2022-07-23T07:07:31;98819.88;;;23.60;47.06
65384;BME280;51986;52.788;41.368;2022-07-23T07:09:59;98835.03;;;23.07;48.43
65384;BME280;51986;52.788;41.368;2022-07-23T07:12:26;98826.72;;;23.16;47.68
65384;BME280;51986;52.788;41.368;2022-07-23T07:14:53;98818.69;;;23.27;47.02
65384;BME280;51986;52.788;41.368;2022-07-23T07:17:20;98828.19;;;23.40;47.24
65384;BME280;51986;52.788;41.368;2022-07-23T07:19:47;98837.97;;;23.65;46.24
65384;BME280;51986;52.788;41.368;2022-07-23T07:22:14;98834.56;;;23.59;46.25
65384;BME280;51986;52.788;41.368;2022-07-23T07:24:41;98833.47;;;24.07;45.33
65384;BME280;51986;52.788;41.368;2022-07-23T07:29:45;98823.53;;;23.46;44.86
65384;BME280;51986;52.788;41.368;2022-07-23T07:32:18;98809.53;;;23.87;44.84
65384;BME280;51986;52.788;41.368;2022-07-23T07:35:08;98827.19;;;23.76;45.34
65384;BME280;51986;52.788;41.368;2022-07-23T07:40:26;98831.78;;;23.98;44.94
65384;BME280;51986;52.788;41.368;2022-07-23T07:42:59;98818.78;;;24.66;44.65
65384;BME280;51986;52.788;41.368;2022-07-23T07:45:26;98827.56;;;24.25;44.08
65384;BME280;51986;52.788;41.368;2022-07-23T07:47:53;98821.56;;;23.74;44.12
65384;BME280;51986;52.788;41.368;2022-07-23T07:50:21;98835.50;;;23.90;45.53
65384;BME280;51986;52.788;41.368;2022-07-23T07:52:48;98843.31;;;23.99;45.31
65384;BME280;51986;52.788;41.368;2022-07-23T07:55:15;98841.06;;;24.03;45.00
65384;BME280;51986;52.788;41.368;2022-07-23T07:57:43;98835.59;;;24.37;44.78
65384;BME280;51986;52.788;41.368;2022-07-23T08:00:30;98824.00;;;24.53;45.28
65384;BME280;51986;52.788;41.368;2022-07-23T08:02:58;98841.22;;;24.85;43.95
65384;BME280;51986;52.788;41.368;2022-07-23T08:05:29;98822.97;;;24.62;44.52
65384;BME280;51986;52.788;41.368;2022-07-23T08:08:00;98845.06;;;24.54;45.74
65384;BME280;51986;52.788;41.368;2022-07-23T08:10:27;98858.22;;;24.69;45.70
65384;BME280;51986;52.788;41.368;2022-07-23T08:13:00;98861.22;;;24.60;44.66
65384;BME280;51986;52.788;41.368;2022-07-23T08:15:29;98857.75;;;24.65;45.12
65384;BME280;51986;52.788;41.368;2022-07-23T08:17:56;98870.84;;;24.91;45.01
65384;BME280;51986;52.788;41.368;2022-07-23T08:20:24;98847.69;;;24.66;46.46
65384;BME280;51986;52.788;41.368;2022-07-23T08:22:59;98855.59;;;24.58;45.02
65384;BME280;51986;52.788;41.368;2022-07-23T08:25:41;98812.53;;;24.47;46.03
65384;BME280;51986;52.788;41.368;2022-07-23T08:28:11;98849.63;;;24.07;46.03
65384;BME280;51986;52.788;41.368;2022-07-23T08:30:42;98848.19;;;24.64;45.23
65384;BME280;51986;52.788;41.368;2022-07-23T08:33:12;98862.88;;;24.69;45.70
65384;BME280;51986;52.788;41.368;2022-07-23T08:36:03;98846.00;;;25.09;45.63
65384;BME280;51986;52.788;41.368;2022-07-23T08:38:34;98846.25;;;25.06;44.57
65384;BME280;51986;52.788;41.368;2022-07-23T08:41:02;98827.50;;;24.83;44.82
65384;BME280;51986;52.788;41.368;2022-07-23T08:43:32;98854.66;;;24.97;44.95
65384;BME280;51986;52.788;41.368;2022-07-23T08:46:03;98836.78;;;24.41;46.27
65384;BME280;51986;52.788;41.368;2022-07-23T08:48:34;98817.75;;;24.28;45.96
65384;BME280;51986;52.788;41.368;2022-07-23T08:51:03;98850.88;;;24.06;46.80
65384;BME280;51986;52.788;41.368;2022-07-23T08:53:33;98823.78;;;23.70;46.89
65384;BME280;51986;52.788;41.368;2022-07-23T08:56:02;98834.56;;;23.59;47.37
65384;BME280;51986;52.788;41.368;2022-07-23T08:58:31;98844.03;;;23.94;46.65
65384;BME280;51986;52.788;41.368;2022-07-23T09:00:58;98840.69;;;23.71;46.92
65384;BME280;51986;52.788;41.368;2022-07-23T09:03:31;98833.00;;;24.08;47.02
65384;BME280;51986;52.788;41.368;2022-07-23T09:06:02;98834.00;;;23.89;46.11
65384;BME280;51986;52.788;41.368;2022-07-23T09:08:40;98833.44;;;24.18;45.87
65384;BME280;51986;52.788;41.368;2022-07-23T09:11:10;98840.88;;;24.59;46.35
65384;BME280;51986;52.788;41.368;2022-07-23T09:13:51;98823.47;;;25.01;45.11
65384;BME280;51986;52.788;41.368;2022-07-23T09:16:25;98841.00;;;25.19;44.46
65384;BME280;51986;52.788;41.368;2022-07-23T09:18:55;98828.75;;;25.48;43.77
65384;BME280;51986;52.788;41.368;2022-07-23T09:21:36;98824.13;;;25.43;43.84
65384;BME280;51986;52.788;41.368;2022-07-23T09:24:11;98823.09;;;25.76;43.67
65384;BME280;51986;52.788;41.368;2022-07-23T09:26:46;98814.53;;;25.42;43.98
65384;BME280;51986;52.788;41.368;2022-07-23T09:29:25;98801.50;;;24.86;44.71
65384;BME280;51986;52.788;41.368;2022-07-23T09:31:54;98818.28;;;25.09;45.00
65384;BME280;51986;52.788;41.368;2022-07-23T09:34:27;98810.84;;;25.45;43.54
65384;BME280;51986;52.788;41.368;2022-07-23T09:37:13;98793.75;;;25.07;43.70
65384;BME280;51986;52.788;41.368;2022-07-23T09:39:41;98791.16;;;25.50;43.39
65384;BME280;51986;52.788;41.368;2022-07-23T09:42:25;98814.50;;;25.18;44.06
65384;BME280;51986;52.788;41.368;2022-07-23T09:44:56;98805.66;;;24.87;44.53
65384;BME280;51986;52.788;41.368;2022-07-23T09:47:32;98814.47;;;25.23;43.58
65384;BME280;51986;52.788;41.368;2022-07-23T09:50:06;98782.53;;;25.27;42.62
65384;BME280;51986;52.788;41.368;2022-07-23T09:52:35;98796.03;;;25.52;42.51
65384;BME280;51986;52.788;41.368;2022-07-23T09:55:06;98790.47;;;25.93;41.06
65384;BME280;51986;52.788;41.368;2022-07-23T09:57:36;98794.28;;;26.03;42.73
65384;BME280;51986;52.788;41.368;2022-07-23T10:00:12;98792.31;;;26.04;41.39
65384;BME280;51986;52.788;41.368;2022-07-23T10:02:40;98789.84;;;26.06;42.87
65384;BME280;51986;52.788;41.368;2022-07-23T10:05:26;98783.94;;;26.45;42.27
65384;BME280;51986;52.788;41.368;2022-07-23T10:08:40;98793.38;;;26.39;42.23
65384;BME280;51986;52.788;41.368;2022-07-23T10:11:28;98783.75;;;26.24;42.54
65384;BME280;51986;52.788;41.368;2022-07-23T10:14:25;98761.03;;;25.90;42.66
65384;BME280;51986;52.788;41.368;2022-07-23T10:17:01;98786.91;;;26.04;43.72
65384;BME280;51986;52.788;41.368;2022-07-23T10:19:29;98795.41;;;26.32;43.68
65384;BME280;51986;52.788;41.368;2022-07-23T10:22:19;98782.78;;;26.41;43.47
65384;BME280;51986;52.788;41.368;2022-07-23T10:27:44;98773.63;;;26.95;41.64
65384;BME280;51986;52.788;41.368;2022-07-23T10:36:18;98763.56;;;26.44;42.77
65384;BME280;51986;52.788;41.368;2022-07-23T10:38:54;98765.09;;;26.58;40.75
65384;BME280;51986;52.788;41.368;2022-07-23T10:44:16;98773.41;;;26.60;41.14
65384;BME280;51986;52.788;41.368;2022-07-23T10:47:01;98753.03;;;26.41;41.71
65384;BME280;51986;52.788;41.368;2022-07-23T10:49:32;98752.31;;;26.21;41.52
65384;BME280;51986;52.788;41.368;2022-07-23T10:54:54;98724.63;;;25.53;40.92
65384;BME280;51986;52.788;41.368;2022-07-23T10:57:24;98731.97;;;25.77;41.71
65384;BME280;51986;52.788;41.368;2022-07-23T11:02:30;98715.63;;;25.20;44.83
65384;BME280;51986;52.788;41.368;2022-07-23T11:05:04;98729.66;;;24.83;46.35
65384;BME280;51986;52.788;41.368;2022-07-23T11:07:33;98713.66;;;24.91;46.54
65384;BME280;51986;52.788;41.368;2022-07-23T11:10:00;98719.03;;;25.45;45.28
65384;BME280;51986;52.788;41.368;2022-07-23T11:14:57;98725.09;;;26.51;42.84
65384;BME280;51986;52.788;41.368;2022-07-23T11:17:25;98738.47;;;26.95;41.79
65384;BME280;51986;52.788;41.368;2022-07-23T11:20:16;98732.59;;;27.49;40.34
65384;BME280;51986;52.788;41.368;2022-07-23T11:22:55;98708.81;;;27.29;39.80
65384;BME280;51986;52.788;41.368;2022-07-23T11:27:51;98716.31;;;27.36;39.70
65384;BME280;51986;52.788;41.368;2022-07-23T11:35:46;98722.16;;;27.40;39.09
65384;BME280;51986;52.788;41.368;2022-07-23T11:40:55;98718.81;;;27.21;40.63
65384;BME280;51986;52.788;41.368;2022-07-23T11:43:23;98674.56;;;26.27;41.81
65384;BME280;51986;52.788;41.368;2022-07-23T11:45:58;98704.97;;;26.15;42.10
65384;BME280;51986;52.788;41.368;2022-07-23T11:48:27;98710.31;;;26.01;42.78
65384;BME280;51986;52.788;41.368;2022-07-23T11:50:56;98695.88;;;25.31;44.81
65384;BME280;51986;52.788;41.368;2022-07-23T11:53:28;98724.22;;;25.19;46.20
65384;BME280;51986;52.788;41.368;2022-07-23T11:56:04;98715.66;;;24.84;45.80
65384;BME280;51986;52.788;41.368;2022-07-23T11:58:32;98750.56;;;24.77;45.89
65384;BME280;51986;52.788;41.368;2022-07-23T12:00:58;98746.41;;;24.70;47.79
65384;BME280;51986;52.788;41.368;2022-07-23T12:03:27;98768.75;;;24.65;48.43
65384;BME280;51986;52.788;41.368;2022-07-23T12:05:59;98794.25;;;24.23;51.77
65384;BME280;51986;52.788;41.368;2022-07-23T12:08:26;98802.75;;;23.41;57.20
65384;BME280;51986;52.788;41.368;2022-07-23T12:10:53;98827.41;;;22.83;60.70
65384;BME280;51986;52.788;41.368;2022-07-23T12:13:21;98839.78;;;22.47;62.59
65384;BME280;51986;52.788;41.368;2022-07-23T12:15:52;98830.94;;;21.87;64.73
65384;BME280;51986;52.788;41.368;2022-07-23T12:18:27;98803.84;;;21.85;63.18
65384;BME280;51986;52.788;41.368;2022-07-23T12:20:56;98866.34;;;21.91;62.30
65384;BME280;51986;52.788;41.368;2022-07-23T12:23:25;98885.56;;;21.46;63.25
65384;BME280;51986;52.788;41.368;2022-07-23T12:25:53;98865.78;;;21.18;64.96
65384;BME280;51986;52.788;41.368;2022-07-23T12:28:26;98868.53;;;20.97;64.15
65384;BME280;51986;52.788;41.368;2022-07-23T12:30:56;98880.47;;;20.56;65.44
65384;BME280;51986;52.788;41.368;2022-07-23T12:36:15;98850.41;;;20.25;64.81
65384;BME280;51986;52.788;41.368;2022-07-23T12:38:47;98823.50;;;19.99;65.89
65384;BME280;51986;52.788;41.368;2022-07-23T12:41:15;98843.28;;;20.02;64.45
65384;BME280;51986;52.788;41.368;2022-07-23T12:43:44;98802.81;;;20.00;63.68
65384;BME280;51986;52.788;41.368;2022-07-23T12:46:17;98804.59;;;20.23;64.22
65384;BME280;51986;52.788;41.368;2022-07-23T12:51:24;98804.78;;;20.87;63.81
65384;BME280;51986;52.788;41.368;2022-07-23T12:53:53;98797.28;;;20.91;62.10
65384;BME280;51986;52.788;41.368;2022-07-23T12:58:58;98812.63;;;21.16;62.27
65384;BME280;51986;52.788;41.368;2022-07-23T13:01:28;98823.94;;;21.00;62.08
65384;BME280;51986;52.788;41.368;2022-07-23T13:04:07;98807.56;;;21.24;61.26
65384;BME280;51986;52.788;41.368;2022-07-23T13:06:57;98828.59;;;21.31;60.48
65384;BME280;51986;52.788;41.368;2022-07-23T13:09:28;98814.06;;;21.43;60.76
65384;BME280;51986;52.788;41.368;2022-07-23T13:11:59;98819.09;;;21.67;60.88
65384;BME280;51986;52.788;41.368;2022-07-23T13:14:27;98812.13;;;21.87;59.74
65384;BME280;51986;52.788;41.368;2022-07-23T13:16:55;98809.72;;;21.89;58.18
65384;BME280;51986;52.788;41.368;2022-07-23T13:19:25;98813.69;;;21.99;58.26
65384;BME280;51986;52.788;41.368;2022-07-23T13:21:53;98828.38;;;22.09;58.43
65384;BME280;51986;52.788;41.368;2022-07-23T13:24:20;98845.78;;;22.19;58.54
65384;BME280;51986;52.788;41.368;2022-07-23T13:26:48;98838.50;;;22.31;57.26
65384;BME280;51986;52.788;41.368;2022-07-23T13:29:15;98856.84;;;22.33;60.81
65384;BME280;51986;52.788;41.368;2022-07-23T13:31:45;98853.16;;;22.30;61.87
65384;BME280;51986;52.788;41.368;2022-07-23T13:34:12;98847.78;;;22.30;61.45
65384;BME280;51986;52.788;41.368;2022-07-23T13:36:39;98830.41;;;22.25;61.14
65384;BME280;51986;52.788;41.368;2022-07-23T13:41:51;98853.66;;;22.34;60.53
65384;BME280;51986;52.788;41.368;2022-07-23T13:44:18;98811.69;;;22.53;59.99
65384;BME280;51986;52.788;41.368;2022-07-23T13:46:48;98843.00;;;22.68;60.17
65384;BME280;51986;52.788;41.368;2022-07-23T13:49:16;98826.16;;;22.67;59.89
65384;BME280;51986;52.788;41.368;2022-07-23T13:51:43;98834.03;;;22.93;58.89
65384;BME280;51986;52.788;41.368;2022-07-23T13:54:10;98856.09;;;23.14;58.36
65384;BME280;51986;52.788;41.368;2022-07-23T13:56:37;98869.81;;;23.27;57.76
65384;BME280;51986;52.788;41.368;2022-07-23T13:59:04;98844.34;;;23.40;57.42
65384;BME280;51986;52.788;41.368;2022-07-23T14:01:33;98845.31;;;23.65;57.97